createdAt,value
2022-12-24T00:01:07.974Z,15.43
2022-12-24T00:03:37.285Z,19.67
2022-12-24T00:06:05.872Z,18.50
2022-12-24T00:08:33.487Z,19.27
2022-12-24T00:11:00.931Z,15.10
2022-12-24T00:13:28.413Z,14.87
2022-12-24T00:15:55.883Z,16.03
2022-12-24T00:18:24.632Z,15.23
2022-12-24T00:20:52.366Z,15.37
2022-12-24T00:23:20.444Z,16.40
2022-12-24T00:25:48.178Z,12.40
2022-12-24T00:28:16.560Z,13.00
2022-12-24T00:30:44.558Z,17.17
2022-12-24T00:33:12.295Z,14.03
2022-12-24T00:35:41.640Z,16.80
2022-12-24T00:38:09.953Z,13.00
2022-12-24T00:40:37.527Z,14.03
2022-12-24T00:43:05.021Z,14.83
2022-12-24T00:45:32.431Z,11.77
2022-12-24T00:47:59.847Z,12.87
2022-12-24T00:50:27.274Z,13.70
2022-12-24T00:52:56.129Z,14.47
2022-12-24T00:55:23.560Z,15.53
2022-12-24T00:57:50.947Z,10.23
2022-12-24T01:00:19.012Z,12.40
2022-12-24T01:02:46.548Z,13.73
2022-12-24T01:05:14.234Z,12.07
2022-12-24T01:07:44.945Z,13.73
2022-12-24T01:10:15.077Z,13.90
2022-12-24T01:12:43.270Z,13.27
2022-12-24T01:15:12.542Z,13.87
2022-12-24T01:17:40.903Z,16.40
2022-12-24T01:20:10.639Z,15.90
2022-12-24T01:22:38.115Z,13.43
2022-12-24T01:25:06.312Z,13.60
2022-12-24T01:27:35.147Z,14.80
2022-12-24T01:30:02.748Z,16.30
2022-12-24T01:32:30.454Z,16.73
2022-12-24T01:34:57.916Z,13.10
2022-12-24T01:37:25.382Z,12.90
2022-12-24T01:40:12.842Z,16.97
2022-12-24T01:43:06.508Z,14.30
2022-12-24T01:45:42.854Z,19.00
2022-12-24T01:48:28.564Z,15.97
2022-12-24T01:50:59.754Z,16.30
2022-12-24T01:53:27.413Z,17.83
2022-12-24T01:55:56.019Z,16.40
2022-12-24T01:58:26.189Z,17.57
2022-12-24T02:00:53.690Z,17.20
2022-12-24T02:03:22.184Z,19.40
2022-12-24T02:05:51.848Z,17.80
2022-12-24T02:08:20.551Z,16.80
2022-12-24T02:10:49.260Z,17.27
2022-12-24T02:13:19.934Z,14.93
2022-12-24T02:16:11.700Z,16.77
2022-12-24T02:18:47.386Z,17.77
2022-12-24T02:21:31.989Z,20.07
2022-12-24T02:24:21.776Z,15.87
2022-12-24T02:27:11.155Z,18.50
2022-12-24T02:30:04.250Z,21.60
2022-12-24T02:32:38.322Z,23.50
2022-12-24T02:35:11.652Z,21.30
2022-12-24T02:37:42.291Z,22.47
2022-12-24T02:40:16.737Z,20.13
2022-12-24T02:42:49.868Z,18.90
2022-12-24T02:45:23.119Z,22.23
2022-12-24T02:47:52.565Z,18.40
2022-12-24T02:50:20.223Z,22.43
2022-12-24T02:52:48.448Z,23.23
2022-12-24T02:55:20.203Z,18.90
2022-12-24T02:58:06.989Z,20.80
2022-12-24T03:00:46.591Z,19.33
2022-12-24T03:03:31.335Z,18.30
2022-12-24T03:06:06.021Z,22.53
2022-12-24T03:08:44.811Z,23.00
2022-12-24T03:11:15.202Z,19.43
2022-12-24T03:13:44.184Z,17.83
2022-12-24T03:16:16.123Z,22.40
2022-12-24T03:18:46.956Z,21.10
2022-12-24T03:21:18.463Z,24.30
2022-12-24T03:23:45.944Z,21.67
2022-12-24T03:26:17.290Z,21.13
2022-12-24T03:28:45.583Z,21.13
2022-12-24T03:31:15.618Z,20.97
2022-12-24T03:33:43.176Z,21.77
2022-12-24T03:36:11.645Z,19.67
2022-12-24T03:38:39.174Z,24.20
2022-12-24T03:41:07.149Z,19.30
2022-12-24T03:43:34.587Z,21.57
2022-12-24T03:46:05.367Z,20.90
2022-12-24T03:48:36.728Z,21.83
2022-12-24T03:51:05.049Z,22.07
2022-12-24T03:53:32.887Z,20.67
2022-12-24T03:56:00.313Z,18.80
2022-12-24T03:58:27.798Z,20.57
2022-12-24T04:00:55.404Z,20.27
2022-12-24T04:03:22.937Z,21.03
2022-12-24T04:06:02.347Z,19.80
2022-12-24T04:08:29.934Z,19.33
2022-12-24T04:10:57.339Z,19.70
2022-12-24T04:13:25.053Z,18.67
2022-12-24T04:15:58.369Z,19.53
2022-12-24T04:18:25.813Z,22.10
2022-12-24T04:20:54.888Z,18.03
2022-12-24T04:23:22.866Z,17.03
2022-12-24T04:25:50.559Z,18.97
2022-12-24T04:28:18.512Z,17.57
2022-12-24T04:30:45.922Z,19.33
2022-12-24T04:33:13.342Z,18.10
2022-12-24T04:35:42.209Z,17.43
2022-12-24T04:38:11.222Z,15.80
2022-12-24T04:40:38.627Z,16.20
2022-12-24T04:43:06.647Z,14.47
2022-12-24T04:45:34.197Z,19.07
2022-12-24T04:48:01.667Z,16.63
2022-12-24T04:50:29.135Z,15.17
2022-12-24T04:52:56.579Z,17.07
2022-12-24T04:55:26.163Z,19.30
2022-12-24T04:57:53.722Z,19.13
2022-12-24T05:00:21.683Z,19.57
2022-12-24T05:02:49.305Z,17.30
2022-12-24T05:05:16.951Z,16.53
2022-12-24T05:07:44.352Z,17.43
2022-12-24T05:10:12.277Z,18.17
2022-12-24T05:12:40.999Z,15.27
2022-12-24T05:15:09.860Z,16.03
2022-12-24T05:17:37.284Z,16.03
2022-12-24T05:20:05.157Z,17.07
2022-12-24T05:22:50.035Z,16.70
2022-12-24T05:25:40.640Z,14.80
2022-12-24T05:28:09.740Z,13.93
2022-12-24T05:30:37.236Z,15.23
2022-12-24T05:33:04.895Z,14.97
2022-12-24T05:35:32.471Z,15.07
2022-12-24T05:38:00.095Z,15.23
2022-12-24T05:40:27.573Z,15.43
2022-12-24T05:42:55.003Z,15.77
2022-12-24T05:45:23.728Z,14.77
2022-12-24T05:47:51.162Z,14.83
2022-12-24T05:50:18.801Z,15.67
2022-12-24T05:52:46.230Z,15.80
2022-12-24T05:55:13.647Z,15.30
2022-12-24T05:57:41.518Z,13.77
2022-12-24T06:00:10.477Z,15.13
2022-12-24T06:02:39.336Z,16.40
2022-12-24T06:05:07.167Z,16.90
2022-12-24T06:07:35.406Z,17.70
2022-12-24T06:10:02.848Z,18.40
2022-12-24T06:12:30.382Z,17.87
2022-12-24T06:14:57.821Z,17.70
2022-12-24T06:17:25.325Z,18.70
2022-12-24T06:19:54.025Z,17.83
2022-12-24T06:22:21.467Z,23.23
2022-12-24T06:24:48.917Z,17.77
2022-12-24T06:27:16.362Z,16.27
2022-12-24T06:29:43.777Z,16.23
2022-12-24T06:32:11.202Z,18.17
2022-12-24T06:34:38.710Z,17.07
2022-12-24T06:37:07.568Z,15.33
2022-12-24T06:39:34.968Z,16.53
2022-12-24T06:42:02.374Z,17.10
2022-12-24T06:44:29.776Z,16.00
2022-12-24T06:46:57.418Z,15.83
2022-12-24T06:49:24.854Z,16.10
2022-12-24T06:51:52.276Z,15.90
2022-12-24T06:54:21.046Z,17.23
2022-12-24T06:56:48.425Z,15.90
2022-12-24T06:59:15.889Z,14.67
2022-12-24T07:01:43.417Z,15.87
2022-12-24T07:04:16.255Z,16.57
2022-12-24T07:06:47.199Z,25.30
2022-12-24T07:09:15.272Z,18.43
2022-12-24T07:11:44.145Z,13.43
2022-12-24T07:14:11.601Z,14.17
2022-12-24T07:16:39.093Z,11.87
2022-12-24T07:19:06.750Z,13.97
2022-12-24T07:21:34.410Z,14.13
2022-12-24T07:24:01.859Z,14.80
2022-12-24T07:26:29.277Z,17.47
2022-12-24T07:28:58.189Z,13.70
2022-12-24T07:31:25.671Z,12.23
2022-12-24T07:33:53.333Z,12.20
2022-12-24T07:36:22.091Z,12.37
2022-12-24T07:38:49.563Z,13.57
2022-12-24T07:41:17.101Z,15.03
2022-12-24T07:43:44.568Z,14.33
2022-12-24T07:46:13.360Z,14.43
2022-12-24T07:48:40.824Z,14.30
2022-12-24T07:51:08.338Z,13.50
2022-12-24T07:53:35.831Z,12.77
2022-12-24T07:56:06.234Z,15.37
2022-12-24T07:58:38.005Z,17.67
2022-12-24T08:01:05.791Z,14.13
2022-12-24T08:03:34.632Z,13.80
2022-12-24T08:06:02.319Z,15.17
2022-12-24T08:08:29.854Z,18.30
2022-12-24T08:11:02.606Z,16.07
2022-12-24T08:13:30.468Z,14.03
2022-12-24T08:15:58.034Z,15.20
2022-12-24T08:18:26.003Z,15.43
2022-12-24T08:20:54.738Z,14.47
2022-12-24T08:23:22.224Z,14.57
2022-12-24T08:25:50.342Z,14.90
2022-12-24T08:28:20.578Z,16.20
2022-12-24T08:30:49.945Z,13.90
2022-12-24T08:33:17.886Z,16.73
2022-12-24T08:35:49.109Z,19.17
2022-12-24T08:38:18.080Z,19.07
2022-12-24T08:40:47.226Z,19.20
2022-12-24T08:43:14.620Z,19.53
2022-12-24T08:45:42.081Z,18.23
2022-12-24T08:48:10.935Z,21.67
2022-12-24T08:50:40.948Z,17.33
2022-12-24T08:53:08.402Z,19.60
2022-12-24T08:55:37.347Z,17.63
2022-12-24T08:58:05.109Z,18.20
2022-12-24T09:00:32.566Z,19.67
2022-12-24T09:03:00.119Z,21.47
2022-12-24T09:05:27.731Z,19.60
2022-12-24T09:07:55.287Z,16.47
2022-12-24T09:10:23.229Z,17.33
2022-12-24T09:12:52.122Z,18.83
2022-12-24T09:15:19.985Z,16.60
2022-12-24T09:17:47.400Z,17.47
2022-12-24T09:20:15.074Z,21.03
2022-12-24T09:22:42.593Z,16.70
2022-12-24T09:25:11.125Z,20.97
2022-12-24T09:27:38.606Z,19.40
2022-12-24T09:30:09.134Z,20.23
2022-12-24T09:32:36.702Z,17.20
2022-12-24T09:35:04.502Z,17.70
2022-12-24T09:37:32.022Z,17.10
2022-12-24T09:39:59.434Z,18.60
2022-12-24T09:42:42.416Z,17.13
2022-12-24T09:45:18.754Z,16.50
2022-12-24T09:47:51.637Z,17.53
2022-12-24T09:50:29.814Z,18.27
2022-12-24T09:52:59.444Z,18.87
2022-12-24T09:55:30.843Z,18.87
2022-12-24T09:58:00.576Z,19.93
2022-12-24T10:00:31.694Z,20.53
2022-12-24T10:02:59.386Z,21.67
2022-12-24T10:05:33.816Z,20.77
2022-12-24T10:08:08.601Z,20.77
2022-12-24T10:10:43.459Z,23.13
2022-12-24T10:13:20.981Z,29.20
2022-12-24T10:15:56.016Z,24.00
2022-12-24T10:18:30.573Z,23.87
2022-12-24T10:21:03.901Z,21.90
2022-12-24T10:23:38.958Z,22.63
2022-12-24T10:26:16.329Z,21.53
2022-12-24T10:28:48.111Z,25.97
2022-12-24T10:31:16.917Z,27.70
2022-12-24T10:33:48.277Z,25.50
2022-12-24T10:36:18.768Z,25.13
2022-12-24T10:38:46.535Z,23.93
2022-12-24T10:41:15.215Z,23.77
2022-12-24T10:43:45.073Z,23.07
2022-12-24T10:46:22.082Z,22.83
2022-12-24T10:48:54.263Z,22.37
2022-12-24T10:51:27.016Z,21.77
2022-12-24T10:53:59.745Z,20.47
2022-12-24T10:56:27.152Z,20.10
2022-12-24T10:58:56.237Z,20.40
2022-12-24T11:01:45.829Z,19.93
2022-12-24T11:04:17.645Z,18.93
2022-12-24T11:06:54.345Z,21.03
2022-12-24T11:09:25.610Z,18.23
2022-12-24T11:11:53.175Z,18.33
2022-12-24T11:14:22.306Z,14.70
2022-12-24T11:16:54.402Z,16.80
2022-12-24T11:19:30.117Z,15.37
2022-12-24T11:22:03.939Z,17.23
2022-12-24T11:24:33.371Z,15.43
2022-12-24T11:27:24.227Z,16.43
2022-12-24T11:29:51.907Z,18.07
2022-12-24T11:32:23.350Z,18.23
2022-12-24T11:34:50.890Z,18.77
2022-12-24T11:37:22.020Z,17.00
2022-12-24T11:39:51.836Z,16.97
2022-12-24T11:42:29.542Z,16.17
2022-12-24T11:44:59.236Z,15.03
2022-12-24T11:47:35.850Z,12.13
2022-12-24T11:50:25.567Z,13.97
2022-12-24T11:53:03.542Z,13.77
2022-12-24T11:55:41.126Z,12.47
2022-12-24T11:58:19.684Z,14.03
2022-12-24T12:00:49.010Z,13.47
2022-12-24T12:03:29.904Z,13.97
2022-12-24T12:05:59.942Z,14.27
2022-12-24T12:08:30.136Z,13.53
2022-12-24T12:10:59.907Z,14.43
2022-12-24T12:13:33.440Z,14.60
2022-12-24T12:16:15.419Z,13.27
2022-12-24T12:18:52.105Z,13.93
2022-12-24T12:21:23.986Z,13.97
2022-12-24T12:23:55.645Z,13.17
2022-12-24T12:26:26.672Z,14.97
2022-12-24T12:28:57.250Z,13.03
2022-12-24T12:31:29.464Z,11.40
2022-12-24T12:34:04.483Z,13.90
2022-12-24T12:36:35.348Z,11.50
2022-12-24T12:39:02.838Z,10.40
2022-12-24T12:41:47.006Z,10.60
2022-12-24T12:44:45.354Z,10.37
2022-12-24T12:47:36.132Z,11.80
2022-12-24T12:50:13.456Z,14.30
2022-12-24T12:52:55.669Z,11.80
2022-12-24T12:55:33.468Z,12.07
2022-12-24T12:58:04.331Z,11.43
2022-12-24T13:00:38.093Z,12.03
2022-12-24T13:03:31.826Z,11.20
2022-12-24T13:06:37.634Z,11.73
2022-12-24T13:09:29.825Z,12.43
2022-12-24T13:12:22.097Z,13.13
2022-12-24T13:15:03.825Z,12.53
2022-12-24T13:17:48.060Z,12.73
2022-12-24T13:20:25.115Z,11.57
2022-12-24T13:22:58.213Z,12.37
2022-12-24T13:25:31.336Z,13.83
2022-12-24T13:28:16.391Z,13.70
2022-12-24T13:30:44.511Z,13.73
2022-12-24T13:33:13.789Z,11.80
2022-12-24T13:36:00.221Z,14.57
2022-12-24T13:38:42.621Z,16.47
2022-12-24T13:41:49.718Z,14.90
2022-12-24T13:44:20.234Z,12.57
2022-12-24T13:46:51.095Z,20.80
2022-12-24T13:49:21.769Z,12.47
2022-12-24T13:51:51.076Z,14.20
2022-12-24T13:54:28.483Z,12.63
2022-12-24T13:56:56.087Z,12.03
2022-12-24T13:59:38.380Z,19.43
2022-12-24T14:02:19.705Z,18.63
2022-12-24T14:04:51.878Z,22.43
2022-12-24T14:07:21.233Z,19.77
2022-12-24T14:09:52.699Z,23.73
2022-12-24T14:12:47.688Z,18.13
2022-12-24T14:15:47.279Z,18.40
2022-12-24T14:18:19.129Z,19.87
2022-12-24T14:20:50.255Z,19.43
2022-12-24T14:23:31.568Z,20.50
2022-12-24T14:26:02.663Z,21.07
2022-12-24T14:28:36.959Z,18.83
2022-12-24T14:31:06.597Z,38.37
2022-12-24T14:33:36.138Z,20.97
2022-12-24T14:36:04.102Z,18.07
2022-12-24T14:38:32.081Z,22.10
2022-12-24T14:41:10.088Z,24.03
2022-12-24T14:43:49.882Z,20.60
2022-12-24T14:46:25.647Z,18.27
2022-12-24T14:48:56.495Z,18.37
2022-12-24T14:51:35.743Z,24.13
2022-12-24T14:54:21.796Z,19.83
2022-12-24T14:57:11.084Z,19.53
2022-12-24T14:59:49.758Z,24.60
2022-12-24T15:02:32.392Z,26.73
2022-12-24T15:05:08.172Z,22.87
2022-12-24T15:07:43.603Z,24.27
2022-12-24T15:10:26.670Z,24.57
2022-12-24T15:12:56.530Z,18.60
2022-12-24T15:15:24.340Z,21.37
2022-12-24T15:17:52.384Z,22.93
2022-12-24T15:20:22.645Z,23.57
2022-12-24T15:22:53.267Z,23.13
2022-12-24T15:25:24.973Z,27.03
2022-12-24T15:27:53.138Z,21.20
2022-12-24T15:30:24.449Z,20.70
2022-12-24T15:32:53.698Z,20.97
2022-12-24T15:35:36.012Z,29.10
2022-12-24T15:38:06.397Z,20.47
2022-12-24T15:40:34.935Z,23.37
2022-12-24T15:43:03.890Z,18.20
2022-12-24T15:45:40.425Z,22.70
2022-12-24T15:48:10.919Z,20.43
2022-12-24T15:50:44.191Z,22.90
2022-12-24T15:53:19.360Z,25.93
2022-12-24T15:56:02.470Z,24.13
2022-12-24T15:58:32.227Z,25.93
2022-12-24T16:01:26.665Z,23.40
2022-12-24T16:04:01.176Z,25.73
2022-12-24T16:06:29.418Z,26.90
2022-12-24T16:08:59.997Z,30.20
2022-12-24T16:11:35.057Z,28.50
2022-12-24T16:14:07.836Z,30.20
2022-12-24T16:16:39.700Z,26.33
2022-12-24T16:19:16.594Z,26.83
2022-12-24T16:21:45.060Z,24.27
2022-12-24T16:24:18.277Z,19.70
2022-12-24T16:26:45.751Z,22.13
2022-12-24T16:29:13.678Z,24.50
2022-12-24T16:31:47.723Z,23.33
2022-12-24T16:34:17.119Z,27.30
2022-12-24T16:36:46.398Z,23.27
2022-12-24T16:39:24.038Z,23.90
2022-12-24T16:42:09.376Z,24.33
2022-12-24T16:44:37.102Z,25.60
2022-12-24T16:47:07.700Z,34.60
2022-12-24T16:49:38.591Z,26.53
2022-12-24T16:52:06.410Z,26.47
2022-12-24T16:54:34.741Z,23.93
2022-12-24T16:57:02.182Z,29.80
2022-12-24T16:59:29.680Z,31.77
2022-12-24T17:01:57.329Z,21.60
2022-12-24T17:04:33.478Z,25.23
2022-12-24T17:07:01.037Z,26.17
2022-12-24T17:09:28.536Z,27.90
2022-12-24T17:11:56.014Z,30.90
2022-12-24T17:14:23.487Z,36.67
2022-12-24T17:16:50.941Z,35.07
2022-12-24T17:19:18.444Z,22.53
2022-12-24T17:21:47.304Z,31.03
2022-12-24T17:24:15.175Z,31.13
2022-12-24T17:26:45.420Z,36.53
2022-12-24T17:29:12.913Z,33.13
2022-12-24T17:31:40.872Z,29.23
2022-12-24T17:34:08.377Z,30.07
2022-12-24T17:36:36.005Z,28.93
2022-12-24T17:39:04.965Z,30.03
2022-12-24T17:41:32.362Z,24.20
2022-12-24T17:44:00.135Z,26.37
2022-12-24T17:46:27.689Z,27.50
2022-12-24T17:48:56.561Z,27.23
2022-12-24T17:51:24.443Z,29.90
2022-12-24T17:53:52.107Z,22.80
2022-12-24T17:56:21.212Z,27.37
2022-12-24T17:58:48.671Z,30.73
2022-12-24T18:01:19.020Z,23.87
2022-12-24T18:03:47.547Z,26.33
2022-12-24T18:06:16.184Z,25.33
2022-12-24T18:08:46.445Z,22.33
2022-12-24T18:11:14.747Z,25.67
2022-12-24T18:13:43.907Z,18.97
2022-12-24T18:16:16.786Z,25.40
2022-12-24T18:18:44.742Z,27.67
2022-12-24T18:21:12.279Z,26.33
2022-12-24T18:23:45.589Z,27.50
2022-12-24T18:26:13.698Z,27.20
2022-12-24T18:28:42.786Z,24.93
2022-12-24T18:31:14.572Z,22.77
2022-12-24T18:33:47.046Z,21.03
2022-12-24T18:36:14.870Z,25.87
2022-12-24T18:38:42.566Z,19.33
2022-12-24T18:41:12.060Z,17.90
2022-12-24T18:43:39.690Z,18.97
2022-12-24T18:46:09.601Z,17.27
2022-12-24T18:48:37.339Z,19.83
2022-12-24T18:51:06.709Z,17.33
2022-12-24T18:53:34.688Z,17.67
2022-12-24T18:56:07.063Z,15.77
2022-12-24T18:58:35.124Z,14.60
2022-12-24T19:01:02.618Z,17.73
2022-12-24T19:03:31.461Z,16.43
2022-12-24T19:06:01.843Z,18.67
2022-12-24T19:08:56.447Z,13.57
2022-12-24T19:11:18.817Z,17.23
2022-12-24T19:13:47.947Z,16.23
2022-12-24T19:16:16.362Z,18.13
2022-12-24T19:18:45.763Z,17.10
2022-12-24T19:21:15.159Z,15.90
2022-12-24T19:23:45.111Z,14.83
2022-12-24T19:26:14.457Z,14.57
2022-12-24T19:28:44.425Z,11.30
2022-12-24T19:31:14.188Z,13.80
2022-12-24T19:33:44.460Z,13.63
2022-12-24T19:36:15.644Z,13.67
2022-12-24T19:38:45.735Z,14.17
2022-12-24T19:41:15.207Z,18.13
2022-12-24T19:43:45.927Z,21.40
2022-12-24T19:46:15.617Z,20.10
2022-12-24T19:48:44.092Z,17.63
2022-12-24T19:51:13.486Z,25.67
2022-12-24T19:53:41.231Z,18.37
2022-12-24T19:56:09.578Z,15.60
2022-12-24T19:58:37.501Z,13.77
2022-12-24T20:01:14.830Z,17.87
2022-12-24T20:03:43.835Z,13.87
2022-12-24T20:06:12.738Z,10.40
2022-12-24T20:08:40.756Z,10.40
2022-12-24T20:11:10.084Z,11.83
2022-12-24T20:13:39.356Z,8.20
2022-12-24T20:16:08.540Z,10.97
2022-12-24T20:18:36.168Z,13.30
2022-12-24T20:21:05.767Z,8.83
2022-12-24T20:23:34.855Z,6.10
2022-12-24T20:26:05.231Z,9.20
2022-12-24T20:28:34.564Z,7.50
2022-12-24T20:31:02.026Z,8.10
2022-12-24T20:33:29.436Z,8.83
2022-12-24T20:36:02.282Z,8.47
2022-12-24T20:38:29.894Z,8.63
2022-12-24T20:40:58.915Z,6.83
2022-12-24T20:43:30.708Z,8.50
2022-12-24T20:46:02.412Z,7.17
2022-12-24T20:48:30.506Z,8.57
2022-12-24T20:50:58.030Z,9.13
2022-12-24T20:53:25.908Z,9.70
2022-12-24T20:55:54.469Z,10.03
2022-12-24T20:58:23.315Z,10.63
2022-12-24T21:00:50.912Z,7.33
2022-12-24T21:03:19.125Z,8.33
2022-12-24T21:05:46.715Z,11.63
2022-12-24T21:08:14.632Z,10.23
2022-12-24T21:10:42.292Z,9.13
2022-12-24T21:13:08.873Z,9.07
2022-12-24T21:15:39.821Z,12.80
2022-12-24T21:18:11.570Z,10.80
2022-12-24T21:20:39.916Z,12.47
2022-12-24T21:23:07.663Z,13.40
2022-12-24T21:25:35.458Z,12.80
2022-12-24T21:28:03.182Z,12.10
2022-12-24T21:30:32.147Z,16.20
2022-12-24T21:33:00.992Z,11.37
2022-12-24T21:35:28.498Z,16.10
2022-12-24T21:37:55.895Z,16.33
2022-12-24T21:40:25.471Z,12.23
2022-12-24T21:42:52.882Z,13.40
2022-12-24T21:45:21.873Z,21.57
2022-12-24T21:47:49.299Z,16.87
2022-12-24T21:50:36.030Z,14.47
2022-12-24T21:53:17.481Z,11.40
2022-12-24T21:55:45.315Z,11.33
2022-12-24T21:58:15.292Z,15.13
2022-12-24T22:00:43.675Z,10.57
2022-12-24T22:03:11.532Z,14.50
2022-12-24T22:05:42.369Z,14.17
2022-12-24T22:08:27.769Z,24.70
2022-12-24T22:11:14.752Z,13.00
2022-12-24T22:13:42.346Z,13.30
2022-12-24T22:16:15.251Z,14.13
2022-12-24T22:18:42.704Z,16.07
2022-12-24T22:21:12.743Z,22.37
2022-12-24T22:23:42.867Z,15.50
2022-12-24T22:26:16.768Z,13.90
2022-12-24T22:28:45.434Z,15.90
2022-12-24T22:31:20.269Z,15.00
2022-12-24T22:33:48.106Z,14.07
2022-12-24T22:36:17.410Z,14.23
2022-12-24T22:38:44.895Z,17.63
2022-12-24T22:41:13.894Z,14.53
2022-12-24T22:43:41.557Z,16.00
2022-12-24T22:46:10.551Z,12.80
2022-12-24T22:48:38.882Z,17.33
2022-12-24T22:51:07.411Z,14.53
2022-12-24T22:53:37.100Z,14.23
2022-12-24T22:56:05.873Z,13.53
2022-12-24T22:58:33.465Z,12.07
2022-12-24T23:01:01.956Z,16.77
2022-12-24T23:03:30.616Z,15.80
2022-12-24T23:05:58.909Z,16.03
2022-12-24T23:08:27.504Z,18.47
2022-12-24T23:11:06.520Z,19.47
2022-12-24T23:13:51.510Z,17.00
2022-12-24T23:16:18.975Z,30.50
2022-12-24T23:18:46.468Z,19.10
2022-12-24T23:21:14.213Z,17.23
2022-12-24T23:23:41.646Z,17.00
2022-12-24T23:26:12.710Z,19.47
2022-12-24T23:28:40.805Z,17.50
2022-12-24T23:31:08.682Z,18.23
2022-12-24T23:33:36.860Z,18.43
2022-12-24T23:36:05.259Z,17.20
2022-12-24T23:38:33.314Z,20.17
2022-12-24T23:41:02.826Z,21.23
2022-12-24T23:43:32.208Z,14.40
2022-12-24T23:45:59.692Z,16.00
2022-12-24T23:48:27.685Z,21.93
2022-12-24T23:51:05.083Z,16.50
2022-12-24T23:53:32.645Z,19.70
2022-12-24T23:56:00.195Z,17.93
2022-12-24T23:58:27.707Z,20.23
